Latest Weather Observations for Casey*

IDT60801

Issued at 11:35 am EST Sunday 25 June 2017 (issued every 30 minutes, with the page automatically refreshed every 10 minutes)

About weather observations | Map of weather stations | Latest weather observations for ANT | Other Formats
Station Details ID: 300017 Name: CASEY Lat: -66.28 Lon: 110.52 Height: 40.0 m
Data from the previous 72 hours. | See also: Recent months at Casey*
Date/Time
EST
Temp
°C
App
Temp
°C
Dew
Point
°C
Rel
Hum
%
Delta-T
°C
Wind Press
QNH
hPa
Press
MSL
hPa
Rain since
9am
mm
Dir  Spd
km/h
Gust
km/h
Spd
kts
Gust
kts
25/11:30am -24.1 -29.2 -28.3 68 - ENE 7 9 4 5 978.8 - -
25/11:00am -23.5 -28.6 -27.0 73 - SSE 7 9 4 5 978.6 - -
25/10:30am -24.3 -30.2 -28.5 68 - SSE 11 13 6 7 978.6 - -
25/10:00am -25.5 -32.6 -29.6 69 - SSE 17 20 9 11 978.5 979.1 -
25/09:30am -25.2 -31.5 -29.0 71 - S 13 15 7 8 978.6 - -
25/09:00am -23.4 -28.3 -26.7 74 - N 6 9 3 5 978.6 - -
25/08:30am -23.6 -29.9 -27.2 72 - NE 13 13 7 7 978.4 - -
25/08:00am -24.7 -31.4 -29.0 67 - E 15 19 8 10 978.5 - -
25/07:30am -26.3 -34.3 -30.3 69 - S 22 24 12 13 978.5 - -
25/07:00am -23.4 -30.1 -28.8 61 - SSE 15 22 8 12 978.4 978.9 -
25/06:30am -23.6 -30.2 -27.7 69 - SSE 15 19 8 10 978.3 - -
25/06:00am -24.6 -32.0 -29.4 64 - S 19 22 10 12 978.0 - -
25/05:30am -23.9 -31.9 -28.6 65 - S 22 24 12 13 978.2 - -
25/05:00am -24.8 -32.4 -28.7 70 - S 20 22 11 12 978.3 - -
25/04:30am -22.5 -29.5 -27.6 63 - SSE 17 17 9 9 978.5 - -
25/04:00am -24.7 -31.4 -28.7 69 - SSE 15 15 8 8 978.8 979.4 -
25/03:30am -25.3 -32.0 -28.8 73 - S 15 17 8 9 978.8 - -
25/03:00am -25.1 -31.0 -28.8 71 - S 11 15 6 8 979.0 - -
25/02:30am -22.9 -28.4 -27.1 68 - SE 9 11 5 6 978.9 - -
25/02:00am -23.5 -29.0 -27.9 67 - S 9 13 5 7 978.8 - -
25/01:30am -22.8 -27.9 -26.4 72 - S 7 9 4 5 978.5 - -
25/01:00am -23.2 -29.4 -26.8 72 - S 13 15 7 8 978.3 978.8 -
25/12:30am -23.0 -28.9 -26.8 71 - SSE 11 13 6 7 978.3 - -
25/12:00am -22.4 -29.0 -26.5 69 - S 15 17 8 9 978.5 - -
 
Date/Time
EST
Temp
°C
App
Temp
°C
Dew
Point
°C
Rel
Hum
%
Delta-T
°C
Wind Press
QNH
hPa
Press
MSL
hPa
Rain since
9am
mm
Dir  Spd
km/h
Gust
km/h
Spd
kts
Gust
kts
24/11:30pm -22.9 -29.5 -26.5 72 - SE 15 20 8 11 978.7 - -
24/11:00pm -23.4 -31.4 -26.7 74 - S 22 30 12 16 978.6 - -
24/10:30pm -24.1 -31.7 -27.1 76 - S 20 24 11 13 978.7 - -
24/10:00pm -24.3 -35.9 -27.2 77 - S 41 46 22 25 978.8 979.5 -
24/09:30pm -23.6 -34.4 -26.6 76 - S 37 44 20 24 979.6 - -
24/09:00pm -23.7 -36.2 -26.6 77 - S 46 56 25 30 979.1 - -
24/08:30pm -24.2 -37.1 -27.1 77 - S 48 57 26 31 979.5 - -
24/08:00pm -24.4 -36.4 -27.3 77 - S 43 52 23 28 980.2 - -
24/07:30pm -24.0 -37.3 -26.9 77 - S 50 57 27 31 980.1 - -
24/07:00pm -24.1 -36.2 -27.0 77 - SSW 44 50 24 27 980.8 981.4 -
24/06:30pm -23.6 -35.2 -26.5 77 - SW 41 48 22 26 980.8 - -
24/06:29pm -23.6 -34.4 -26.6 76 - SW 37 44 20 24 980.9 - -
24/06:25pm -23.6 -34.4 -26.6 76 - SW 37 43 20 23 980.8 - -
24/06:00pm -23.6 -34.0 -26.5 77 - S 35 41 19 22 980.2 - -
24/05:30pm -23.7 -35.8 -26.6 77 - S 44 50 24 27 980.4 - -
24/05:00pm -23.6 -35.7 -26.5 77 - S 44 56 24 30 980.4 - -
24/04:30pm -23.1 -37.7 -25.8 78 - S 57 67 31 36 979.0 - -
24/04:00pm -23.2 -37.6 -25.9 78 - S 56 67 30 36 979.0 979.6 -
24/03:30pm -23.0 -37.6 -25.7 79 - S 57 69 31 37 978.9 - -
24/03:00pm -22.5 -35.7 -25.3 78 - S 50 57 27 31 978.9 - -
24/02:30pm -22.4 -35.6 -25.3 77 - S 50 61 27 33 978.5 - -
24/02:00pm -22.3 -34.4 -25.1 78 - S 44 54 24 29 978.6 - -
24/01:30pm -22.1 -34.2 -25.0 77 - S 44 59 24 32 978.3 - -
24/01:27pm -22.1 -33.6 -25.0 77 - S 41 59 22 32 978.4 - -
24/01:26pm -22.1 -33.6 -25.0 77 - S 41 59 22 32 978.4 - -
24/01:00pm -22.4 -33.2 -25.4 77 - S 37 44 20 24 978.9 979.5 -
24/12:30pm -22.4 -32.8 -25.4 77 - S 35 43 19 23 979.4 - -
24/12:00pm -22.3 -34.2 -25.5 75 - S 43 50 23 27 979.3 - -
24/11:30am -22.4 -36.0 -25.4 77 - S 52 57 28 31 978.7 - -
24/11:00am -22.5 -34.4 -25.7 75 - S 43 52 23 28 979.1 - -
24/10:30am -22.4 -34.5 -25.6 75 - S 44 54 24 29 978.4 - -
24/10:00am -22.7 -35.2 -26.3 72 - S 46 56 25 30 978.6 979.2 -
24/09:30am -23.6 -34.4 -28.1 66 - SSE 37 41 20 22 979.0 - -
24/09:00am -23.6 -33.5 -28.0 67 - S 32 41 17 22 978.6 - -
24/08:30am -22.0 -32.4 -26.4 67 - S 35 43 19 23 978.0 - -
24/08:00am -22.2 -31.3 -26.8 66 - S 28 33 15 18 978.2 - -
24/07:30am -20.7 -30.1 -25.7 64 - S 30 35 16 19 978.0 - -
24/07:00am -17.3 -25.8 -20.2 78 - S 26 28 14 15 977.9 978.3 -
24/06:30am -18.6 -27.6 -21.9 75 - E 28 33 15 18 977.4 - -
24/06:00am -18.5 -28.8 -21.8 75 - E 35 39 19 21 977.3 - -
24/05:30am -18.1 -28.4 -21.0 78 - ENE 35 41 19 22 977.2 - -
24/05:27am -18.3 -29.0 -21.2 78 - ENE 37 41 20 22 977.2 - -
24/05:00am -18.0 -27.7 -20.6 80 - NE 32 41 17 22 977.3 - -
24/04:30am -18.3 -27.6 -21.0 79 - NE 30 41 16 22 977.4 - -
24/04:09am -18.4 -27.7 -21.0 80 - NNE 30 50 16 27 977.5 - -
24/04:08am -18.4 -27.7 -21.0 80 - NNE 30 50 16 27 977.5 - -
24/04:00am -18.7 -26.9 -21.4 79 - NNE 24 33 13 18 977.6 978.2 -
24/03:30am -19.3 -27.5 -22.0 79 - NNE 24 35 13 19 978.2 - -
24/03:00am -20.4 -27.9 -23.2 78 - NNE 20 26 11 14 978.5 - -
24/02:30am -20.8 -28.1 -23.5 79 - NE 19 22 10 12 978.7 - -
24/02:00am -19.7 -26.2 -22.2 80 - N 15 20 8 11 978.8 - -
24/01:30am -19.6 -26.5 -22.0 81 - NNW 17 19 9 10 979.0 - -
24/01:00am -19.1 -25.2 -21.4 82 - NW 13 17 7 9 978.8 979.4 -
24/12:30am -18.7 -24.0 -21.0 82 - N 9 13 5 7 978.9 - -
24/12:00am -18.5 -22.1 -20.8 82 - CALM 0 0 0 0 979.0 - -
 
Date/Time
EST
Temp
°C
App
Temp
°C
Dew
Point
°C
Rel
Hum
%
Delta-T
°C
Wind Press
QNH
hPa
Press
MSL
hPa
Rain since
9am
mm
Dir  Spd
km/h
Gust
km/h
Spd
kts
Gust
kts
23/11:30pm -18.6 -23.4 -20.9 82 - NNE 6 6 3 3 979.3 - -
23/11:00pm -18.6 -23.5 -20.8 83 - N 7 9 4 5 979.6 - -
23/10:30pm -18.8 -24.9 -21.1 82 - N 13 17 7 9 979.6 - -
23/10:00pm -18.6 -25.1 -20.8 83 - N 15 17 8 9 980.0 980.6 -
23/09:30pm -18.6 -25.1 -20.9 82 - N 15 19 8 10 980.7 - -
23/09:00pm -18.4 -25.6 -20.7 82 - N 19 24 10 13 980.9 - -
23/08:30pm -17.9 -24.3 -20.2 82 - N 15 22 8 12 981.2 - -
23/08:00pm -17.7 -22.4 -20.0 82 - SSE 6 9 3 5 981.1 - -
23/07:30pm -17.8 -24.2 -19.8 84 - SSE 15 17 8 9 981.3 - -
23/07:00pm -18.2 -24.3 -20.6 81 - S 13 17 7 9 982.2 982.9 -
23/06:30pm -17.4 -23.1 -19.7 82 - S 11 15 6 8 983.0 - -
23/06:00pm -17.0 -22.3 -19.3 82 - SSE 9 13 5 7 983.4 - -
23/05:30pm -16.6 -22.2 -18.8 83 - NW 11 17 6 9 984.0 - -
23/05:00pm -17.2 -23.2 -19.8 80 - ESE 13 17 7 9 984.7 - -
23/04:30pm -17.5 -23.6 -21.3 72 - SE 13 15 7 8 985.5 - -
23/04:00pm -18.1 -23.9 -24.7 56 - SSE 11 13 6 7 985.8 986.3 -
23/03:30pm -18.2 -24.0 -24.8 56 - SSE 11 11 6 6 986.6 - -
23/03:00pm -18.6 -25.2 -24.6 59 - SSE 15 15 8 8 986.5 - -
23/02:30pm -18.8 -25.4 -24.6 60 - SSE 15 19 8 10 986.7 - -
23/02:00pm -18.6 -25.6 -25.4 55 - SSE 17 19 9 10 987.0 - -
23/01:30pm -18.7 -25.3 -25.5 55 - SSE 15 17 8 9 987.6 - -
23/01:00pm -18.9 -25.9 -25.4 56 - SSE 17 19 9 10 988.1 988.6 -
23/12:30pm -19.6 -25.8 -25.4 60 - SSE 13 15 7 8 988.4 - -
23/12:00pm -20.4 -27.4 -25.9 61 - S 17 19 9 10 988.7 - -
23/11:30am -20.2 -27.6 -26.5 57 - SSE 19 22 10 12 989.1 - -
23/11:00am -20.9 -29.2 -27.0 58 - S 24 32 13 17 989.5 - -
23/10:30am -21.0 -28.6 -27.2 57 - SSE 20 26 11 14 989.8 - -
23/10:00am -20.3 -28.6 -27.4 53 - SSE 24 32 13 17 990.2 990.8 -
23/09:30am -19.9 -27.9 -27.2 52 - SSE 22 26 12 14 990.6 - -
23/09:00am -20.2 -27.2 -26.9 55 - S 17 19 9 10 991.0 - -
23/08:30am -21.0 -30.1 -27.8 54 - S 28 32 15 17 991.3 - -
23/08:00am -21.0 -30.9 -28.4 51 - S 32 39 17 21 991.3 - -
23/07:30am -21.3 -31.8 -28.7 51 - SSE 35 43 19 23 991.7 - -
23/07:00am -20.9 -31.0 -28.5 50 - SSE 33 43 18 23 992.4 992.9 -
23/06:30am -20.3 -30.2 -28.6 47 - S 32 41 17 22 992.7 - -
23/06:00am -20.3 -29.4 -28.4 48 - S 28 35 15 19 992.6 - -
23/05:30am -21.6 -31.1 -28.8 52 - S 30 35 16 19 992.8 - -
23/05:00am -22.0 -32.1 -29.4 51 - S 33 43 18 23 992.6 - -
23/04:30am -22.2 -33.8 -29.1 53 - S 41 48 22 26 992.8 - -
23/04:00am -22.9 -33.8 -29.8 53 - S 37 46 20 25 993.5 994.0 -
23/03:30am -22.8 -33.7 -29.9 52 - S 37 46 20 25 993.7 - -
23/03:00am -23.2 -34.8 -29.7 55 - S 41 50 22 27 994.0 - -
23/02:30am -23.5 -36.4 -29.4 58 - S 48 56 26 30 993.7 - -
23/02:00am -24.1 -36.7 -29.8 59 - S 46 54 25 29 994.4 - -
23/01:30am -24.2 -37.1 -29.4 62 - S 48 56 26 30 994.0 - -
23/01:00am -24.7 -37.6 -29.8 63 - S 48 57 26 31 993.8 994.3 -
23/12:30am -24.5 -37.5 -30.0 60 - S 48 54 26 29 993.5 - -
23/12:00am -24.8 -38.1 -30.1 61 - SSE 50 63 27 34 993.6 - -
 
Date/Time
EST
Temp
°C
App
Temp
°C
Dew
Point
°C
Rel
Hum
%
Delta-T
°C
Wind Press
QNH
hPa
Press
MSL
hPa
Rain since
9am
mm
Dir  Spd
km/h
Gust
km/h
Spd
kts
Gust
kts
22/11:30pm -24.4 -39.1 -30.1 59 - S 57 65 31 35 993.3 - -
22/11:00pm -25.0 -38.3 -30.0 63 - S 50 59 27 32 993.5 - -
22/10:30pm -25.2 -35.7 -30.3 62 - S 35 43 19 23 994.0 - -
22/10:00pm -25.2 -36.1 -30.0 64 - S 37 43 20 23 993.6 994.1 -
22/09:30pm -25.5 -35.6 -30.3 64 - S 33 41 18 22 993.7 - -
22/09:00pm -25.1 -35.2 -29.6 66 - SSE 33 44 18 24 993.1 - -
22/08:30pm -24.9 -35.8 -29.9 63 - S 37 43 20 23 993.1 - -
22/08:00pm -25.3 -37.3 -30.2 64 - S 43 56 23 30 992.6 - -
22/07:30pm -24.6 -35.1 -29.4 64 - S 35 39 19 21 992.3 - -
22/07:00pm -25.3 -37.9 -29.6 67 - S 46 54 25 29 992.1 992.6 -
22/06:30pm -25.2 -36.8 -29.5 67 - S 41 48 22 26 992.0 - -
22/06:29pm -25.1 -36.0 -29.6 66 - S 37 48 20 26 991.9 - -
22/06:28pm -25.1 -36.3 -29.6 66 - S 39 48 21 26 991.9 - -
22/06:14pm -23.8 -33.3 -29.9 57 - SE 30 35 16 19 992.1 - -
22/06:13pm -23.8 -33.3 -29.9 57 - SE 30 57 16 31 992.1 - -
22/06:11pm -23.9 -35.1 -30.0 57 - S 39 57 21 31 992.0 - -
22/06:09pm -23.4 -34.6 -29.7 56 - S 39 57 21 31 991.7 - -
22/06:00pm -24.3 -34.8 -29.5 62 - S 35 44 19 24 991.7 - -
22/05:30pm -24.1 -31.5 -29.1 63 - S 19 32 10 17 991.5 - -
22/05:00pm -23.8 -31.8 -28.5 65 - SSE 22 35 12 19 991.1 - -
22/04:30pm -24.1 -32.9 -29.3 62 - SE 26 32 14 17 991.5 - -
22/04:00pm -23.9 -33.4 -29.3 61 - SSE 30 37 16 20 991.7 992.3 -
22/03:30pm -23.5 -35.1 -28.5 63 - S 41 52 22 28 991.4 - -
22/03:00pm -23.4 -32.9 -28.1 65 - SSE 30 41 16 22 991.2 - -
22/02:30pm -23.3 -35.3 -27.8 67 - S 43 50 23 27 990.9 - -
22/02:05pm -23.0 -32.1 -27.4 67 - SSE 28 48 15 26 991.1 - -
22/02:04pm -23.0 -32.1 -27.4 67 - SSE 28 48 15 26 991.1 - -
22/02:00pm -22.9 -32.0 -27.6 65 - SE 28 35 15 19 991.1 - -

Other Formats:

Comma delimited format used in spreadsheet applications
http://www.bom.gov.au/fwo/IDT60803/IDT60803.89611.axf

JavaScript Object Notation format (JSON) in row-major order
http://www.bom.gov.au/fwo/IDT60803/IDT60803.89611.json